Archiv-/Tagesdaten

--Timestamp---	Temp	Chill	HIndex	Humid	Dewpt	 Wind 	HiWind	WindDir	Rain 	Barom	Solar	 ET  	 UV 
--------------	----	-----	------	-----	-----	------	------	-------	-----	-----	-----	-----	----
20260501 00:00	6.8	6.8	6.8	51	-2.6	2	6	68	0.0	1026.3	0	0.025	0.0
20260501 00:05	6.8	6.8	6.8	51	-2.6	2	5	90	0.0	1026.2	0	0.000	0.0
20260501 00:10	6.7	6.7	6.7	51	-2.7	2	5	68	0.0	1026.2	0	0.000	0.0
20260501 00:15	6.6	6.6	6.6	52	-2.6	2	5	90	0.0	1026.2	0	0.000	0.0
20260501 00:20	6.6	6.6	6.6	51	-2.8	2	5	68	0.0	1026.2	0	0.000	0.0
20260501 00:25	6.6	6.6	6.6	51	-2.9	3	8	68	0.0	1026.2	0	0.000	0.0
20260501 00:30	6.6	6.6	6.6	51	-2.8	3	6	68	0.0	1026.2	0	0.000	0.0
20260501 00:35	6.7	6.7	6.7	51	-2.7	2	5	68	0.0	1026.1	0	0.000	0.0
20260501 00:40	6.8	6.8	6.8	51	-2.6	2	5	68	0.0	1026.1	0	0.000	0.0
20260501 00:45	6.8	6.8	6.8	51	-2.6	3	8	68	0.0	1026.1	0	0.000	0.0
20260501 00:50	6.7	6.7	6.7	51	-2.8	3	6	90	0.0	1026.1	0	0.000	0.0
20260501 00:55	6.7	6.7	6.7	51	-2.8	2	6	68	0.0	1026.1	0	0.000	0.0
20260501 01:00	6.7	6.7	6.7	52	-2.5	3	6	68	0.0	1026.2	0	0.025	0.0
20260501 01:05	6.7	6.7	6.7	52	-2.5	5	6	68	0.0	1026.0	0	0.000	0.0
20260501 01:10	6.6	6.6	6.6	52	-2.5	3	6	68	0.0	1026.0	0	0.000	0.0
20260501 01:15	6.4	6.4	6.4	53	-2.4	3	6	68	0.0	1026.1	0	0.000	0.0
20260501 01:20	6.3	6.3	6.3	54	-2.3	3	5	68	0.0	1026.2	0	0.000	0.0
20260501 01:25	6.2	6.2	6.2	54	-2.4	3	5	68	0.0	1026.1	0	0.000	0.0
20260501 01:30	6.1	6.1	6.1	54	-2.5	3	6	68	0.0	1026.1	0	0.000	0.0
20260501 01:35	6.0	6.0	6.0	55	-2.4	3	6	68	0.0	1026.0	0	0.000	0.0
20260501 01:40	5.9	5.9	5.9	55	-2.4	3	6	68	0.0	1026.0	0	0.000	0.0
20260501 01:45	5.9	5.9	5.9	55	-2.5	3	11	68	0.0	1025.9	0	0.000	0.0
20260501 01:50	5.9	5.9	5.9	55	-2.5	3	6	68	0.0	1025.9	0	0.000	0.0
20260501 01:55	5.9	5.9	5.9	55	-2.5	3	8	68	0.0	1025.9	0	0.000	0.0
20260501 02:00	5.9	5.9	5.9	55	-2.5	3	10	68	0.0	1025.9	0	0.025	0.0
20260501 02:05	5.9	5.9	5.9	54	-2.7	3	11	68	0.0	1025.8	0	0.000	0.0
20260501 02:10	5.9	5.9	5.9	54	-2.7	3	8	45	0.0	1025.8	0	0.000	0.0
20260501 02:15	5.9	5.9	5.9	54	-2.7	3	10	45	0.0	1025.9	0	0.000	0.0
20260501 02:20	5.8	5.8	5.8	55	-2.6	3	6	68	0.0	1025.8	0	0.000	0.0
20260501 02:25	5.6	5.6	5.6	55	-2.7	3	8	68	0.0	1025.9	0	0.000	0.0
20260501 02:30	5.6	5.6	5.6	55	-2.8	3	11	68	0.0	1025.9	0	0.000	0.0
20260501 02:35	5.6	5.6	5.6	55	-2.7	3	10	68	0.0	1025.9	0	0.000	0.0
20260501 02:40	5.6	5.6	5.6	55	-2.8	5	11	45	0.0	1025.9	0	0.000	0.0
20260501 02:45	5.5	4.2	5.5	56	-2.6	6	11	45	0.0	1025.9	0	0.000	0.0
20260501 02:50	5.6	3.9	5.6	55	-2.7	8	14	45	0.0	1025.9	0	0.000	0.0
20260501 02:55	5.6	3.8	5.6	55	-2.8	8	16	45	0.0	1025.9	0	0.000	0.0
20260501 03:00	5.5	5.5	5.5	56	-2.6	5	10	68	0.0	1025.9	0	0.051	0.0
20260501 03:05	5.4	5.4	5.4	56	-2.6	3	8	68	0.0	1025.9	0	0.000	0.0
20260501 03:10	5.4	5.4	5.4	56	-2.7	3	6	68	0.0	1025.8	0	0.000	0.0
20260501 03:15	5.3	5.3	5.3	56	-2.7	2	8	68	0.0	1025.8	0	0.000	0.0
20260501 03:20	5.3	5.3	5.3	56	-2.8	2	6	68	0.0	1025.8	0	0.000	0.0
20260501 03:25	5.2	5.2	5.2	57	-2.7	2	5	68	0.0	1025.8	0	0.000	0.0
20260501 03:30	5.1	5.1	5.1	57	-2.8	2	5	68	0.0	1025.9	0	0.000	0.0
20260501 03:35	4.9	4.9	4.9	57	-2.9	2	6	68	0.0	1025.9	0	0.000	0.0
20260501 03:40	4.9	4.9	4.9	58	-2.6	2	8	68	0.0	1025.8	0	0.000	0.0
20260501 03:45	4.9	4.9	4.9	57	-2.9	3	8	68	0.0	1025.8	0	0.000	0.0
20260501 03:50	4.9	4.9	4.9	57	-2.9	2	6	68	0.0	1025.9	0	0.000	0.0
20260501 03:55	4.9	4.9	4.9	57	-2.9	2	6	112	0.0	1025.9	0	0.000	0.0
20260501 04:00	5.1	5.1	5.1	56	-2.9	3	10	90	0.0	1025.8	0	0.025	0.0
20260501 04:05	5.2	5.2	5.2	56	-2.9	3	8	112	0.0	1025.8	0	0.000	0.0
20260501 04:10	5.3	5.3	5.3	56	-2.8	3	10	90	0.0	1025.8	0	0.000	0.0
20260501 04:15	5.4	5.4	5.4	56	-2.7	3	8	90	0.0	1025.6	0	0.000	0.0
20260501 04:20	5.4	5.4	5.4	56	-2.7	3	6	90	0.0	1025.6	0	0.000	0.0
20260501 04:25	5.4	5.4	5.4	55	-2.9	3	8	90	0.0	1025.7	0	0.000	0.0
20260501 04:30	5.3	5.3	5.3	56	-2.8	3	8	90	0.0	1025.6	0	0.000	0.0
20260501 04:35	5.2	5.2	5.2	56	-2.8	3	10	90	0.0	1025.8	0	0.000	0.0
20260501 04:40	5.2	5.2	5.2	56	-2.9	3	8	90	0.0	1025.7	0	0.000	0.0
20260501 04:45	5.1	5.1	5.1	56	-3.0	3	8	90	0.0	1025.6	0	0.000	0.0
20260501 04:50	5.0	5.0	5.0	57	-2.8	3	10	90	0.0	1025.6	0	0.000	0.0
20260501 04:55	5.0	5.0	5.0	56	-3.0	3	8	90	0.0	1025.6	0	0.000	0.0
20260501 05:00	5.1	5.1	5.1	56	-3.0	5	16	90	0.0	1025.6	0	0.000	0.0
20260501 05:05	5.1	5.1	5.1	56	-3.0	3	8	90	0.0	1025.6	0	0.025	0.0
20260501 05:10	5.1	5.1	5.1	56	-3.0	3	11	90	0.0	1025.5	0	0.000	0.0
20260501 05:15	5.0	5.0	5.0	56	-3.0	5	14	90	0.0	1025.6	0	0.000	0.0
20260501 05:20	5.1	5.1	5.1	56	-3.0	5	11	90	0.0	1025.5	0	0.000	0.0
20260501 05:25	5.1	5.1	5.1	56	-3.0	5	10	90	0.0	1025.5	0	0.000	0.0
20260501 05:30	5.1	5.1	5.1	56	-3.0	5	11	90	0.0	1025.5	0	0.000	0.0
20260501 05:35	5.1	5.1	5.1	55	-3.2	5	11	90	0.0	1025.5	0	0.000	0.0
20260501 05:40	5.1	3.7	5.1	56	-2.9	6	16	90	0.0	1025.5	0	0.000	0.0
20260501 05:45	5.2	5.2	5.2	55	-3.1	5	11	90	0.0	1025.5	0	0.000	0.0
20260501 05:50	5.2	3.8	5.2	55	-3.1	6	14	90	0.0	1025.5	0	0.000	0.0
20260501 05:55	5.3	3.9	5.3	54	-3.3	6	10	90	0.0	1025.6	0	0.000	0.0
20260501 06:00	5.2	5.2	5.2	54	-3.3	5	10	90	0.0	1025.5	0	0.025	0.0
20260501 06:05	5.2	5.2	5.2	54	-3.3	5	10	112	0.0	1025.8	4	0.000	0.0
20260501 06:10	5.2	5.2	5.2	55	-3.1	5	11	90	0.0	1025.8	6	0.000	0.0
20260501 06:15	5.2	5.2	5.2	55	-3.1	5	10	90	0.0	1025.9	8	0.000	0.0
20260501 06:20	5.2	5.2	5.2	55	-3.1	3	10	90	0.0	1026.0	9	0.000	0.0
20260501 06:25	5.3	3.9	5.3	54	-3.3	6	16	90	0.0	1025.8	11	0.000	0.0
20260501 06:30	5.4	4.1	5.4	54	-3.1	6	14	112	0.0	1025.9	12	0.000	0.0
20260501 06:35	5.6	3.8	5.6	54	-3.0	8	18	90	0.0	1025.9	13	0.000	0.0
20260501 06:40	5.7	4.4	5.7	53	-3.1	6	11	90	0.0	1026.0	15	0.000	0.0
20260501 06:45	5.8	4.1	5.8	53	-3.1	8	16	90	0.0	1026.0	18	0.000	0.0
20260501 06:50	5.9	4.6	5.9	53	-3.0	6	16	90	0.0	1026.0	19	0.000	0.0
20260501 06:55	5.9	4.7	5.9	53	-2.9	6	19	90	0.0	1026.0	19	0.000	0.0
20260501 07:00	6.1	4.4	6.1	53	-2.7	8	16	90	0.0	1026.0	21	0.025	0.0
20260501 07:05	6.3	5.1	6.3	52	-2.8	6	14	90	0.0	1026.2	22	0.000	0.0
20260501 07:10	6.5	4.9	6.5	52	-2.6	8	14	90	0.0	1026.2	23	0.000	0.0
20260501 07:15	6.6	5.5	6.6	52	-2.5	6	16	90	0.0	1026.3	24	0.000	0.0
20260501 07:20	6.8	6.8	6.8	52	-2.4	5	13	112	0.0	1026.3	25	0.000	0.0
20260501 07:25	6.9	6.9	6.9	52	-2.3	5	10	112	0.0	1026.3	25	0.000	0.0
20260501 07:30	7.1	7.1	7.1	52	-2.1	5	11	90	0.0	1026.2	82	0.000	0.0
20260501 07:35	7.3	5.8	7.3	51	-2.2	8	18	90	0.0	1026.1	192	0.000	0.0
20260501 07:40	7.6	6.5	7.6	50	-2.2	6	18	90	0.0	1026.2	203	0.000	0.0
20260501 07:45	8.1	6.5	8.1	49	-2.0	10	19	90	0.0	1026.2	216	0.000	0.0
20260501 07:50	8.8	7.6	8.8	47	-1.9	8	18	90	0.0	1026.2	229	0.000	0.0
20260501 07:55	9.3	8.2	9.3	46	-1.7	8	19	90	0.0	1026.1	242	0.000	0.0
20260501 08:00	9.7	8.7	9.7	45	-1.6	8	18	90	0.0	1026.0	256	0.102	0.0
20260501 08:05	10.2	10.2	10.2	45	-1.2	6	18	90	0.0	1026.4	269	0.000	0.0
20260501 08:10	10.3	10.3	10.3	43	-1.7	11	21	90	0.0	1026.2	282	0.000	0.0
20260501 08:15	10.6	10.6	10.6	42	-1.8	11	21	90	0.0	1026.2	294	0.000	0.4
20260501 08:20	10.9	10.9	10.9	42	-1.5	10	21	90	0.0	1026.3	307	0.000	0.5
20260501 08:25	11.2	11.2	11.2	42	-1.2	11	23	90	0.0	1026.3	321	0.000	0.5
20260501 08:30	11.3	11.3	11.3	41	-1.4	13	23	90	0.0	1026.3	333	0.000	0.6
20260501 08:35	11.5	11.5	11.5	40	-1.6	13	27	90	0.0	1026.2	347	0.000	0.6
20260501 08:40	11.7	11.7	11.7	41	-1.1	10	27	90	0.0	1026.2	360	0.000	0.7
20260501 08:45	11.9	11.9	11.9	40	-1.2	10	18	68	0.0	1026.3	372	0.000	0.7
20260501 08:50	12.3	12.3	12.3	40	-0.9	8	19	90	0.0	1026.3	384	0.000	0.7
20260501 08:55	12.4	12.4	12.4	39	-1.1	10	18	90	0.0	1026.3	396	0.000	0.8
20260501 09:00	12.5	12.5	12.5	38	-1.4	13	29	90	0.0	1026.2	409	0.229	0.8
20260501 09:05	12.7	12.7	12.7	39	-0.9	11	24	90	0.0	1026.3	421	0.000	0.9
20260501 09:10	12.9	12.9	12.9	38	-1.0	10	21	90	0.0	1026.3	432	0.000	0.9
20260501 09:15	13.2	13.2	13.2	38	-0.8	11	24	90	0.0	1026.3	445	0.000	1.0
20260501 09:20	13.4	13.4	13.4	38	-0.6	11	21	90	0.0	1026.3	457	0.000	1.0
20260501 09:25	13.4	13.4	13.4	38	-0.6	13	21	90	0.0	1026.4	468	0.000	1.1
20260501 09:30	13.6	13.6	13.6	39	-0.1	13	23	90	0.0	1026.3	479	0.000	1.2
20260501 09:35	13.9	13.9	13.9	38	-0.2	11	21	90	0.0	1026.1	491	0.000	1.2
20260501 09:40	14.1	14.1	14.1	38	0.0	13	24	112	0.0	1026.1	503	0.000	1.3
20260501 09:45	14.1	14.1	14.1	37	-0.4	16	27	112	0.0	1026.2	514	0.000	1.3
20260501 09:50	13.9	13.9	13.9	37	-0.5	13	23	90	0.0	1026.3	503	0.000	1.4
20260501 09:55	14.0	14.0	14.0	37	-0.5	14	23	90	0.0	1026.3	37	0.000	0.2
20260501 10:00	14.1	14.1	14.1	38	-0.0	14	21	90	0.0	1026.3	35	0.279	0.0
20260501 10:05	14.2	14.2	14.2	37	-0.3	16	29	90	0.0	1026.5	35	0.000	0.0
20260501 10:10	14.3	14.3	14.3	37	-0.2	13	24	112	0.0	1026.4	35	0.000	0.0
20260501 10:15	14.3	14.3	14.3	38	0.2	11	19	90	0.0	1026.5	35	0.000	0.0
20260501 10:20	14.4	14.4	14.4	36	-0.4	16	24	112	0.0	1026.5	35	0.000	0.0
20260501 10:25	14.5	14.5	14.5	36	-0.4	13	23	112	0.0	1026.5	35	0.000	0.0
20260501 10:30	14.6	14.6	14.6	36	-0.3	16	27	112	0.0	1026.4	35	0.000	0.0
20260501 10:35	14.8	14.8	14.8	36	-0.1	13	23	112	0.0	1026.3	35	0.000	0.0
20260501 10:40	14.9	14.9	14.9	36	-0.0	14	24	90	0.0	1026.3	35	0.000	0.0
20260501 10:45	15.1	15.1	15.1	36	0.1	13	21	90	0.0	1026.2	36	0.000	0.0
20260501 10:50	15.2	15.2	15.2	37	0.6	14	26	90	0.0	1026.2	37	0.000	0.0
20260501 10:55	15.3	15.3	15.3	36	0.3	13	21	112	0.0	1026.2	37	0.000	0.0
20260501 11:00	15.6	15.6	15.6	36	0.6	10	18	90	0.0	1026.3	37	0.127	0.0
20260501 11:05	15.7	15.7	15.7	36	0.7	10	24	90	0.0	1026.3	37	0.000	0.0
20260501 11:10	15.9	15.9	15.9	36	0.9	11	23	68	0.0	1026.3	37	0.000	0.0
20260501 11:15	16.1	16.1	16.1	36	1.0	11	27	68	0.0	1026.3	37	0.000	0.0
20260501 11:20	16.1	16.1	16.1	36	1.0	11	23	90	0.0	1026.3	37	0.000	0.0
20260501 11:25	16.2	16.2	16.2	34	0.3	14	27	68	0.0	1026.3	37	0.000	0.0
20260501 11:30	16.4	16.4	16.4	35	0.9	14	24	68	0.0	1026.2	37	0.000	0.0
20260501 11:35	16.7	16.7	16.7	34	0.8	14	27	90	0.0	1026.2	37	0.000	0.0
20260501 11:40	16.9	16.9	16.9	34	0.9	16	29	90	0.0	1026.1	37	0.000	0.0
20260501 11:45	17.0	17.0	17.0	34	1.0	14	26	90	0.0	1026.1	38	0.000	0.0
20260501 11:50	17.1	17.1	17.1	34	1.1	13	27	68	0.0	1026.1	39	0.000	0.0
20260501 11:55	17.2	17.2	17.2	35	1.6	13	24	90	0.0	1026.1	51	0.000	1.0
20260501 12:00	17.6	17.6	17.6	34	1.5	13	21	90	0.0	1026.0	731	0.178	1.4
20260501 12:05	17.8	17.8	17.8	34	1.7	11	21	90	0.0	1026.0	737	0.000	2.7
20260501 12:10	17.6	17.6	17.6	34	1.5	14	27	68	0.0	1026.1	740	0.000	3.0
20260501 12:15	17.6	17.6	17.6	36	2.3	11	23	90	0.0	1026.1	745	0.000	3.1
20260501 12:20	18.0	18.0	18.0	34	1.9	10	21	90	0.0	1026.0	750	0.000	3.1
20260501 12:25	17.8	17.8	17.8	34	1.7	11	21	68	0.0	1026.0	754	0.000	3.1
20260501 12:30	17.8	17.8	17.8	35	2.2	11	23	45	0.0	1025.9	755	0.000	3.1
20260501 12:35	17.7	17.7	17.7	34	1.7	13	27	68	0.0	1025.9	758	0.000	3.2
20260501 12:40	18.1	18.1	18.1	33	1.6	13	21	90	0.0	1025.8	762	0.000	3.2
20260501 12:45	18.5	18.5	18.5	33	1.9	10	21	90	0.0	1025.8	763	0.000	3.2
20260501 12:50	18.8	18.8	18.8	31	1.3	11	23	90	0.0	1025.6	764	0.000	3.4
20260501 12:55	18.8	18.8	18.8	31	1.3	11	21	68	0.0	1025.6	766	0.000	3.4
20260501 13:00	18.8	18.8	18.8	32	1.8	10	26	90	0.0	1025.6	767	0.508	3.4
20260501 13:05	19.1	19.1	19.1	33	2.5	13	21	90	0.0	1025.6	767	0.000	3.4
20260501 13:10	19.1	19.1	19.1	32	2.0	10	21	68	0.0	1025.6	766	0.000	3.4
20260501 13:15	18.8	18.8	18.8	34	2.6	8	18	68	0.0	1025.5	766	0.000	3.4
20260501 13:20	19.1	19.1	19.1	33	2.4	11	24	90	0.0	1025.6	765	0.000	3.4
20260501 13:25	19.3	19.3	19.3	35	3.4	8	21	68	0.0	1025.3	766	0.000	3.4
20260501 13:30	19.4	19.4	19.4	33	2.7	10	21	68	0.0	1025.3	765	0.000	3.4
20260501 13:35	19.3	19.3	19.3	34	3.1	11	23	90	0.0	1025.2	764	0.000	3.4
20260501 13:40	19.3	19.3	19.3	33	2.6	11	21	68	0.0	1025.2	761	0.000	3.4
20260501 13:45	19.3	19.3	19.3	34	3.0	10	19	90	0.0	1025.2	761	0.000	3.4
20260501 13:50	19.4	19.4	19.4	33	2.7	11	23	68	0.0	1025.1	758	0.000	3.4
20260501 13:55	18.7	18.7	18.7	33	2.1	14	26	45	0.0	1025.4	755	0.000	3.4
20260501 14:00	18.7	18.7	18.7	34	2.5	13	27	68	0.0	1025.3	752	0.533	3.4
20260501 14:05	18.6	18.6	18.6	34	2.4	14	27	45	0.0	1025.4	749	0.000	3.4
20260501 14:10	18.9	18.9	18.9	34	2.7	13	27	45	0.0	1025.3	743	0.000	3.4
20260501 14:15	18.9	18.9	18.9	33	2.3	11	19	68	0.0	1025.2	741	0.000	3.4
20260501 14:20	19.3	19.3	19.3	34	3.1	10	23	90	0.0	1025.1	737	0.000	3.3
20260501 14:25	19.8	19.8	19.8	32	2.7	10	19	68	0.0	1025.0	733	0.000	3.3
20260501 14:30	20.1	20.1	20.1	33	3.3	10	23	90	0.0	1025.0	727	0.000	3.2
20260501 14:35	19.8	19.8	19.8	33	3.1	11	23	45	0.0	1025.0	722	0.000	3.2
20260501 14:40	19.7	19.7	19.7	33	2.9	8	21	68	0.0	1025.0	716	0.000	3.1
20260501 14:45	19.5	19.5	19.5	34	3.2	14	31	68	0.0	1025.1	710	0.000	3.1
20260501 14:50	19.8	19.8	19.8	33	3.0	11	23	68	0.0	1024.9	705	0.000	3.0
20260501 14:55	19.8	19.8	19.8	33	3.0	11	23	68	0.0	1024.8	699	0.000	2.9
20260501 15:00	19.7	19.7	19.7	34	3.4	11	23	45	0.0	1024.9	691	0.508	2.9
20260501 15:05	19.8	19.8	19.8	35	3.9	11	21	45	0.0	1024.8	685	0.000	2.8
20260501 15:10	20.0	20.0	20.0	35	4.1	14	29	45	0.0	1024.8	678	0.000	2.8
20260501 15:15	20.4	20.4	20.4	35	4.5	10	19	45	0.0	1024.6	670	0.000	2.7
20260501 15:20	20.1	20.1	20.1	34	3.8	14	29	45	0.0	1024.8	662	0.000	2.6
20260501 15:25	20.2	20.2	20.2	34	3.8	13	23	45	0.0	1024.6	654	0.000	2.6
20260501 15:30	19.9	19.9	19.9	35	4.0	14	23	45	0.0	1024.6	646	0.000	2.5
20260501 15:35	20.6	20.6	20.6	34	4.1	10	19	90	0.0	1024.4	638	0.000	2.4
20260501 15:40	20.2	20.2	20.2	35	4.2	14	31	45	0.0	1024.4	629	0.000	2.4
20260501 15:45	20.3	20.3	20.3	36	4.7	13	27	45	0.0	1024.5	621	0.000	2.3
20260501 15:50	20.6	20.6	20.6	34	4.1	13	23	68	0.0	1024.3	611	0.000	2.2
20260501 15:55	20.4	20.4	20.4	33	3.6	14	26	45	0.0	1024.4	602	0.000	2.2
20260501 16:00	20.6	20.6	20.6	35	4.6	11	24	45	0.0	1024.2	591	0.483	2.1
20260501 16:05	20.5	20.5	20.5	35	4.5	13	26	68	0.0	1024.2	581	0.000	2.0
20260501 16:10	20.8	20.8	20.8	34	4.4	11	29	68	0.0	1024.1	571	0.000	1.9
20260501 16:15	20.4	20.4	20.4	35	4.4	14	26	68	0.0	1024.0	562	0.000	1.9
20260501 16:20	20.6	20.6	20.6	35	4.6	13	23	68	0.0	1024.0	552	0.000	1.8
20260501 16:25	20.9	20.9	20.9	34	4.5	11	21	90	0.0	1023.9	541	0.000	1.7
20260501 16:30	20.9	20.9	20.9	34	4.4	11	23	68	0.0	1024.1	530	0.000	1.6
20260501 16:35	20.4	20.4	20.4	33	3.6	14	26	45	0.0	1024.0	519	0.000	1.4
20260501 16:40	20.4	20.4	20.4	34	4.0	13	26	68	0.0	1023.9	509	0.000	1.4
20260501 16:45	20.7	20.7	20.7	34	4.3	8	14	68	0.0	1023.9	498	0.000	1.3
20260501 16:50	20.9	20.9	20.9	33	4.0	11	23	90	0.0	1023.9	486	0.000	1.3
20260501 16:55	20.5	20.5	20.5	34	4.1	13	27	45	0.0	1024.0	474	0.000	1.2
20260501 17:00	20.7	20.7	20.7	34	4.2	10	23	68	0.0	1024.0	462	0.432	1.2
20260501 17:05	20.7	20.7	20.7	34	4.2	10	19	68	0.0	1024.0	450	0.000	1.1
20260501 17:10	20.6	20.6	20.6	34	4.2	11	23	45	0.0	1023.9	438	0.000	1.1
20260501 17:15	20.6	20.6	20.6	34	4.1	11	19	68	0.0	1023.9	426	0.000	1.0
20260501 17:20	20.6	20.6	20.6	34	4.2	11	21	68	0.0	1023.9	414	0.000	0.9
20260501 17:25	20.5	20.5	20.5	34	4.1	11	26	68	0.0	1024.0	401	0.000	0.9
20260501 17:30	20.6	20.6	20.6	34	4.2	10	21	68	0.0	1023.8	389	0.000	0.8
20260501 17:35	20.7	20.7	20.7	35	4.7	8	16	68	0.0	1023.7	375	0.000	0.8
20260501 17:40	20.4	20.4	20.4	34	4.0	11	21	68	0.0	1023.8	363	0.000	0.7
20260501 17:45	20.4	20.4	20.4	35	4.4	10	18	68	0.0	1023.6	350	0.000	0.7
20260501 17:50	20.3	20.3	20.3	35	4.4	11	23	45	0.0	1023.7	339	0.000	0.7
20260501 17:55	20.6	20.6	20.6	35	4.6	10	21	90	0.0	1023.6	326	0.000	0.6
20260501 18:00	20.8	20.8	20.8	34	4.4	11	21	68	0.0	1023.6	313	0.330	0.6
20260501 18:05	20.5	20.5	20.5	35	4.5	10	21	68	0.0	1023.5	301	0.000	0.5
20260501 18:10	20.4	20.4	20.4	35	4.5	10	18	68	0.0	1023.5	289	0.000	0.5
20260501 18:15	20.4	20.4	20.4	35	4.5	8	24	68	0.0	1023.5	276	0.000	0.4
20260501 18:20	20.5	20.5	20.5	35	4.5	8	21	68	0.0	1023.5	264	0.000	0.0
20260501 18:25	20.3	20.3	20.3	35	4.4	8	19	68	0.0	1023.4	253	0.000	0.0
20260501 18:30	20.3	20.3	20.3	36	4.7	6	16	68	0.0	1023.4	242	0.000	0.0
20260501 18:35	19.9	19.9	19.9	36	4.4	11	21	45	0.0	1023.6	230	0.000	0.0
20260501 18:40	19.7	19.7	19.7	36	4.2	10	23	68	0.0	1023.5	216	0.000	0.0
20260501 18:45	19.8	19.8	19.8	36	4.3	8	19	68	0.0	1023.4	201	0.000	0.0
20260501 18:50	19.8	19.8	19.8	36	4.3	8	18	90	0.0	1023.4	187	0.000	0.0
20260501 18:55	19.7	19.7	19.7	36	4.2	5	18	90	0.0	1023.4	172	0.000	0.0
20260501 19:00	19.5	19.5	19.5	36	4.0	8	19	68	0.0	1023.3	158	0.229	0.0
20260501 19:05	19.3	19.3	19.3	37	4.2	8	16	68	0.0	1023.0	142	0.000	0.0
20260501 19:10	19.1	19.1	19.1	38	4.4	6	21	68	0.0	1023.0	42	0.000	0.0
20260501 19:15	18.8	18.8	18.8	38	4.2	6	16	68	0.0	1022.9	33	0.000	0.0
20260501 19:20	18.7	18.7	18.7	38	4.1	6	18	68	0.0	1023.0	33	0.000	0.0
20260501 19:25	18.6	18.6	18.6	38	4.0	6	18	68	0.0	1023.1	32	0.000	0.0
20260501 19:30	18.4	18.4	18.4	38	3.8	6	16	68	0.0	1023.2	31	0.000	0.0
20260501 19:35	18.3	18.3	18.3	38	3.7	5	13	90	0.0	1023.2	29	0.000	0.0
20260501 19:40	18.2	18.2	18.2	39	4.0	5	16	90	0.0	1023.2	27	0.000	0.0
20260501 19:45	18.0	18.0	18.0	39	3.8	6	14	90	0.0	1023.2	24	0.000	0.0
20260501 19:50	17.9	17.9	17.9	39	3.7	5	11	90	0.0	1023.2	19	0.000	0.0
20260501 19:55	17.7	17.7	17.7	39	3.6	6	13	90	0.0	1023.3	19	0.000	0.0
20260501 20:00	17.6	17.6	17.6	40	3.8	5	10	112	0.0	1023.2	17	0.076	0.0
20260501 20:05	17.4	17.4	17.4	40	3.6	5	11	112	0.0	1023.0	13	0.000	0.0
20260501 20:10	17.2	17.2	17.2	41	3.8	3	8	90	0.0	1023.0	11	0.000	0.0
20260501 20:15	17.1	17.1	17.1	41	3.7	3	6	112	0.0	1023.0	8	0.000	0.0
20260501 20:20	16.8	16.8	16.8	42	3.8	3	8	90	0.0	1023.2	5	0.000	0.0
20260501 20:25	16.6	16.6	16.6	42	3.6	3	8	90	0.0	1023.2	2	0.000	0.0
20260501 20:30	16.4	16.4	16.4	43	3.8	2	6	90	0.0	1023.1	0	0.000	0.0
20260501 20:35	16.2	16.2	16.2	43	3.6	3	8	90	0.0	1023.1	0	0.000	0.0
20260501 20:40	16.0	16.0	16.0	44	3.7	3	6	90	0.0	1023.2	0	0.000	0.0
20260501 20:45	15.8	15.8	15.8	44	3.6	2	6	90	0.0	1023.2	0	0.000	0.0
20260501 20:50	15.7	15.7	15.7	45	3.8	2	6	90	0.0	1023.4	0	0.000	0.0
20260501 20:55	15.5	15.5	15.5	45	3.6	3	6	90	0.0	1023.5	0	0.000	0.0
20260501 21:00	15.3	15.3	15.3	46	3.8	3	6	112	0.0	1023.5	0	0.025	0.0
20260501 21:05	15.2	15.2	15.2	46	3.7	2	5	112	0.0	1023.5	0	0.000	0.0
20260501 21:10	15.1	15.1	15.1	46	3.5	2	5	112	0.0	1023.5	0	0.000	0.0
20260501 21:15	14.9	14.9	14.9	47	3.7	0	3	112	0.0	1023.5	0	0.000	0.0
20260501 21:20	14.8	14.8	14.8	48	3.9	0	3	112	0.0	1023.4	0	0.000	0.0
20260501 21:25	14.6	14.6	14.6	49	4.0	0	2	112	0.0	1023.5	0	0.000	0.0
20260501 21:30	14.3	14.3	14.3	50	4.0	0	3	112	0.0	1023.5	0	0.000	0.0
20260501 21:35	14.1	14.1	14.1	50	3.8	0	2	112	0.0	1023.6	0	0.000	0.0
20260501 21:40	13.8	13.8	13.8	51	3.8	0	2	112	0.0	1023.6	0	0.000	0.0
20260501 21:45	13.6	13.6	13.6	52	3.9	0	2	112	0.0	1023.7	0	0.000	0.0
20260501 21:50	13.3	13.3	13.3	52	3.6	0	2	112	0.0	1023.7	0	0.000	0.0
20260501 21:55	13.1	13.1	13.1	52	3.4	0	3	112	0.0	1023.8	0	0.000	0.0
20260501 22:00	12.9	12.9	12.9	53	3.5	0	2	90	0.0	1023.8	0	0.051	0.0
20260501 22:05	12.7	12.7	12.7	54	3.6	0	3	90	0.0	1023.7	0	0.000	0.0
20260501 22:10	12.5	12.5	12.5	55	3.7	0	3	90	0.0	1023.7	0	0.000	0.0
20260501 22:15	12.3	12.3	12.3	56	3.8	0	3	90	0.0	1023.7	0	0.000	0.0
20260501 22:20	12.1	12.1	12.1	56	3.5	0	5	90	0.0	1023.8	0	0.000	0.0
20260501 22:25	11.9	11.9	11.9	58	3.9	2	5	90	0.0	1023.7	0	0.000	0.0
20260501 22:30	11.8	11.8	11.8	58	3.8	2	3	90	0.0	1023.8	0	0.000	0.0
20260501 22:35	11.6	11.6	11.6	59	3.9	0	0	-100000	0.0	1023.8	0	0.000	0.0
20260501 22:40	11.4	11.4	11.4	59	3.7	0	0	-100000	0.0	1023.9	0	0.000	0.0
20260501 22:45	11.3	11.3	11.3	60	3.8	0	0	-100000	0.0	1023.8	0	0.000	0.0
20260501 22:50	11.1	11.1	11.1	60	3.6	0	0	-100000	0.0	1023.8	0	0.000	0.0
20260501 22:55	10.9	10.9	10.9	60	3.5	0	0	-100000	0.0	1023.8	0	0.000	0.0
20260501 23:00	10.8	10.8	10.8	61	3.6	0	3	90	0.0	1023.7	0	0.025	0.0
20260501 23:05	10.6	10.6	10.6	61	3.4	2	5	90	0.0	1023.5	0	0.000	0.0
20260501 23:10	10.4	10.4	10.4	62	3.5	0	3	90	0.0	1023.5	0	0.000	0.0
20260501 23:15	10.3	10.3	10.3	63	3.5	0	3	90	0.0	1023.5	0	0.000	0.0
20260501 23:20	10.2	10.2	10.2	63	3.4	0	3	90	0.0	1023.4	0	0.000	0.0
20260501 23:25	10.1	10.1	10.1	64	3.6	2	5	90	0.0	1023.5	0	0.000	0.0
20260501 23:30	10.0	10.0	10.0	64	3.5	2	5	90	0.0	1023.4	0	0.000	0.0
20260501 23:35	10.1	10.1	10.1	64	3.6	2	5	112	0.0	1023.4	0	0.000	0.0
20260501 23:40	10.0	10.0	10.0	64	3.5	2	3	112	0.0	1023.4	0	0.000	0.0
20260501 23:45	9.9	9.9	9.9	64	3.5	2	3	112	0.0	1023.4	0	0.000	0.0
20260501 23:50	9.9	9.9	9.9	64	3.4	2	3	90	0.0	1023.4	0	0.000	0.0
20260501 23:55	9.8	9.8	9.8	64	3.3	2	3	90	0.0	1023.4	0	0.000	0.0



Please note the license to use and transfer of this data:
https://creativecommons.org/licenses/by-nc-sa/3.0/deed.en

Bitte beachten sie die Lizenz zur Verwertung und Weitergabe der Daten:
https://creativecommons.org/licenses/by-nc-sa/3.0/deed.de

zurück zur Übersicht der Archivdaten (Monats und Tagesdaten)

Cookies helfen bei der Bereitstellung von Inhalten. Diese Website verwendet Cookies. Mit der Nutzung der Website erklären Sie sich damit einverstanden, dass Cookies auf Ihrem Computer gespeichert werden. Außerdem bestätigen Sie, dass Sie unsere Datenschutzerklärung gelesen und verstanden haben. Wenn Sie nicht einverstanden sind, verlassen Sie die Website.Weitere Information